Murdock, Nebraska
Current Conditions -  °F | °C
As of 2:55 AM on Monday 22 Dec 2014 (Local Time) from KPMV Reporting Station
Moderate Rain Moderate Rain  
Wind Chill: 35°   Ceiling: 500
Heat Index: 42°   Visibility: 4mi
Dew Point: 40°   Wind: 13mph
Humidity: 93%   Direction: 160°SSE
Pressure: 29.6"   Gusts: NA
Location:  40.93°N, 96.28°W
Report Text: KPMV 220855Z AUTO 16011KT 4SM RA OVC005 06/05 A2960 RMK AO2 T00570047
Loading
Personal Weather Stations






























Interactive Weather Map New forecast layout! Learn more

10-Day Weather Forecast

Advertisements
Track Severe Weather on mobile